Portada
METAR-TAF:

METAR-TAF

Aeroports :

Aeroport Internacional de Tunis

Tunis, Tunísia

latitud: 36-50N, longitud: 010-14E, altitud: 3 m

Observació

L'informe es va fer fa 44 minuts, a les 09:30 UTC
Vent 8 kt del Nord, variant entre Nord/Nord-Oest i Nord-Est
Temperatura 25°C
Humitat 57%
Pressió 1023 hPa
Visibilitat 10 km o més
Núvols disperses a una alçada de 2300 ft

METAR: DTTA 260930Z 36008KT 330V040 9999 SCT023 25/16 Q1023

Hora: 11:14 (10:14 UTC)

Pronòstic

L'informe es va fer fa 5 hores i 14 minuts, a les 05:00 UTC
Pronòstic vàlid del 26 a les 06 UTC al 27 a les 06 UTC
Vent 8 kt del Oest/Nord-Oest
Visibilitat 10 km o més
Escasses núvols a una alçada de 2600 ft
Evolucionant progressivament
l' 26 a les 09 UTC al 26 a les 11 UTC
Vent 10 kt del Nord/Nord-Est
Evolucionant progressivament
l' 26 a les 20 UTC al 26 a les 22 UTC
Vent 3 kt del Nord/Nord-Oest

TAF: DTTA 260500Z 2606/2706 30008KT 9999 FEW026 BECMG 2609/2611 02010KT BECMG 2620/2622 33003KT

Observacions i pronòstics meteorològics de més de 4000 aeroports (METAR i TAF).

Les estacions disponibles són els punts grocs i vermells al mapa.

Posi el ratolí al punt desitjat per veure el nom de l'estació.

Feu clic per veure les observacions i els pronòstics meteorològics.

Per canviar el mapa: feu clic els botons verds amb una creu de color negre per apropar; al botó verd amb un guió per allunyar la imatge; o en les fletxes verdes per a mapes adjacents.


METAR-TAF: